createdAt,value
2016-08-31T00:00:36.704Z,0
2016-08-31T00:01:38.015Z,0
2016-08-31T00:02:37.260Z,0
2016-08-31T00:03:37.365Z,0
2016-08-31T00:04:38.096Z,0
2016-08-31T00:05:36.720Z,0
2016-08-31T00:06:36.734Z,0
2016-08-31T00:07:36.763Z,0
2016-08-31T00:08:36.065Z,0
2016-08-31T00:09:38.268Z,0
2016-08-31T00:10:37.548Z,0
2016-08-31T00:11:36.143Z,0
2016-08-31T00:12:37.595Z,0
2016-08-31T00:13:38.344Z,0
2016-08-31T00:14:36.944Z,0
2016-08-31T00:15:37.704Z,0
2016-08-31T00:16:37.706Z,0
2016-08-31T00:17:37.022Z,0
2016-08-31T00:18:38.479Z,0
2016-08-31T00:19:37.071Z,0
2016-08-31T00:20:38.524Z,0
2016-08-31T00:21:37.845Z,0
2016-08-31T00:22:36.446Z,0
2016-08-31T00:23:37.893Z,0
2016-08-31T00:24:37.204Z,0
2016-08-31T00:25:37.963Z,0
2016-08-31T00:26:37.261Z,0
2016-08-31T00:27:37.289Z,0
2016-08-31T00:28:36.621Z,0
2016-08-31T00:29:38.051Z,0
2016-08-31T00:30:37.369Z,0
2016-08-31T00:31:36.686Z,0
2016-08-31T00:32:38.130Z,0
2016-08-31T00:33:37.448Z,0
2016-08-31T00:34:38.923Z,0
2016-08-31T00:35:37.495Z,0
2016-08-31T00:36:38.273Z,0
2016-08-31T00:37:37.553Z,0
2016-08-31T00:38:38.290Z,0
2016-08-31T00:39:38.318Z,0
2016-08-31T00:40:38.339Z,0
2016-08-31T00:41:38.366Z,0
2016-08-31T00:42:37.689Z,0
2016-08-31T00:43:38.437Z,0
2016-08-31T00:44:37.029Z,0
2016-08-31T00:45:37.769Z,0
2016-08-31T00:46:38.501Z,0
2016-08-31T00:47:37.812Z,0
2016-08-31T00:48:37.840Z,0
2016-08-31T00:49:37.874Z,0
2016-08-31T00:50:38.604Z,0
2016-08-31T00:51:38.650Z,0
2016-08-31T00:52:38.674Z,0
2016-08-31T00:53:40.107Z,0
2016-08-31T00:54:38.722Z,0
2016-08-31T00:55:39.466Z,0
2016-08-31T00:56:38.071Z,0
2016-08-31T00:57:39.516Z,0
2016-08-31T00:58:38.122Z,0
2016-08-31T00:59:38.154Z,0
2016-08-31T01:00:38.867Z,0
2016-08-31T01:01:38.903Z,0
2016-08-31T01:02:38.919Z,0
2016-08-31T01:03:40.381Z,0
2016-08-31T01:04:39.706Z,0
2016-08-31T01:05:37.582Z,0
2016-08-31T01:06:38.309Z,0
2016-08-31T01:07:39.763Z,0
2016-08-31T01:08:40.500Z,0
2016-08-31T01:09:38.389Z,0
2016-08-31T01:10:39.840Z,0
2016-08-31T01:11:39.877Z,0
2016-08-31T01:12:39.208Z,0
2016-08-31T01:13:39.216Z,0
2016-08-31T01:14:39.947Z,0
2016-08-31T01:15:39.272Z,0
2016-08-31T01:16:39.289Z,0
2016-08-31T01:17:39.316Z,0
2016-08-31T01:18:39.340Z,0
2016-08-31T01:19:39.362Z,0
2016-08-31T01:20:39.395Z,0
2016-08-31T01:21:38.000Z,0
2016-08-31T01:22:39.440Z,0
2016-08-31T01:23:40.217Z,0
2016-08-31T01:24:39.495Z,0
2016-08-31T01:25:39.538Z,0
2016-08-31T01:26:40.267Z,0
2016-08-31T01:27:39.582Z,0
2016-08-31T01:28:39.604Z,0
2016-08-31T01:29:40.339Z,0
2016-08-31T01:30:38.948Z,0
2016-08-31T01:31:40.480Z,0
2016-08-31T01:32:39.013Z,0
2016-08-31T01:33:39.730Z,0
2016-08-31T01:34:39.756Z,0
2016-08-31T01:35:39.786Z,0
2016-08-31T01:36:39.106Z,0
2016-08-31T01:37:38.429Z,0
2016-08-31T01:38:39.866Z,0
2016-08-31T01:39:39.897Z,0
2016-08-31T01:40:39.943Z,0
2016-08-31T01:41:38.530Z,0
2016-08-31T01:42:39.266Z,0
2016-08-31T01:43:39.277Z,0
2016-08-31T01:44:40.023Z,0
2016-08-31T01:45:40.047Z,0
2016-08-31T01:46:40.779Z,0
2016-08-31T01:47:40.099Z,0
2016-08-31T01:48:40.115Z,0
2016-08-31T01:49:39.443Z,0
2016-08-31T01:50:39.469Z,0
2016-08-31T01:51:39.490Z,0
2016-08-31T01:52:40.227Z,0
2016-08-31T01:53:41.672Z,0
2016-08-31T01:54:40.298Z,0
2016-08-31T01:55:40.302Z,0
2016-08-31T01:56:38.903Z,0
2016-08-31T01:57:39.680Z,0
2016-08-31T01:58:41.098Z,0
2016-08-31T01:59:38.995Z,0
2016-08-31T02:00:41.145Z,0
2016-08-31T02:01:40.456Z,0
2016-08-31T02:02:39.780Z,0
2016-08-31T02:03:41.221Z,0
2016-08-31T02:04:40.534Z,0
2016-08-31T02:05:39.186Z,0
2016-08-31T02:06:40.587Z,0
2016-08-31T02:07:41.327Z,0
2016-08-31T02:08:39.931Z,0
2016-08-31T02:09:39.957Z,0
2016-08-31T02:10:40.719Z,0
2016-08-31T02:11:40.029Z,0
2016-08-31T02:12:41.450Z,0
2016-08-31T02:13:40.071Z,0
2016-08-31T02:14:42.219Z,0
2016-08-31T02:15:41.554Z,0
2016-08-31T02:16:39.429Z,0
2016-08-31T02:17:40.868Z,0
2016-08-31T02:18:40.934Z,0
2016-08-31T02:19:41.634Z,0
2016-08-31T02:20:41.654Z,0
2016-08-31T02:21:40.275Z,0
2016-08-31T02:22:41.717Z,0
2016-08-31T02:23:40.316Z,0
2016-08-31T02:24:41.789Z,0
2016-08-31T02:25:41.133Z,0
2016-08-31T02:26:40.428Z,0
2016-08-31T02:27:41.131Z,0
2016-08-31T02:28:41.167Z,0
2016-08-31T02:29:41.191Z,0
2016-08-31T02:30:40.492Z,0
2016-08-31T02:31:41.235Z,0
2016-08-31T02:32:40.547Z,0
2016-08-31T02:33:41.286Z,0
2016-08-31T02:34:40.596Z,0
2016-08-31T02:35:39.927Z,0
2016-08-31T02:36:40.668Z,0
2016-08-31T02:37:40.678Z,0
2016-08-31T02:38:40.702Z,0
2016-08-31T02:39:40.749Z,0
2016-08-31T02:40:42.196Z,0
2016-08-31T02:41:42.221Z,0
2016-08-31T02:42:40.812Z,0
2016-08-31T02:43:41.543Z,0
2016-08-31T02:44:41.563Z,0
2016-08-31T02:45:41.589Z,0
2016-08-31T02:46:40.903Z,0
2016-08-31T02:47:40.933Z,0
2016-08-31T02:48:41.665Z,0
2016-08-31T02:49:41.688Z,0
2016-08-31T02:50:43.149Z,0
2016-08-31T02:51:41.755Z,0
2016-08-31T02:52:41.072Z,0
2016-08-31T02:53:42.522Z,0
2016-08-31T02:54:41.820Z,0
2016-08-31T02:55:41.844Z,0
2016-08-31T02:56:41.876Z,0
2016-08-31T02:57:41.189Z,0
2016-08-31T02:58:41.225Z,0
2016-08-31T02:59:41.951Z,0
2016-08-31T03:00:42.686Z,0
2016-08-31T03:01:42.712Z,0
2016-08-31T03:02:42.024Z,0
2016-08-31T03:03:42.090Z,0
2016-08-31T03:04:42.083Z,0
2016-08-31T03:05:41.399Z,0
2016-08-31T03:06:41.445Z,0
2016-08-31T03:07:42.887Z,0
2016-08-31T03:08:41.474Z,0
2016-08-31T03:09:40.792Z,0
2016-08-31T03:10:42.235Z,0
2016-08-31T03:11:42.269Z,0
2016-08-31T03:12:42.289Z,0
2016-08-31T03:13:43.024Z,0
2016-08-31T03:14:43.750Z,0
2016-08-31T03:15:42.389Z,0
2016-08-31T03:16:41.689Z,0
2016-08-31T03:17:42.409Z,0
2016-08-31T03:18:41.723Z,0
2016-08-31T03:19:41.757Z,0
2016-08-31T03:20:41.779Z,0
2016-08-31T03:21:43.931Z,0
2016-08-31T03:22:41.822Z,0
2016-08-31T03:23:41.185Z,0
2016-08-31T03:24:43.296Z,0
2016-08-31T03:25:42.613Z,0
2016-08-31T03:26:41.926Z,0
2016-08-31T03:27:41.949Z,0
2016-08-31T03:28:41.986Z,0
2016-08-31T03:29:42.727Z,0
2016-08-31T03:30:42.751Z,0
2016-08-31T03:31:41.343Z,0
2016-08-31T03:32:43.493Z,0
2016-08-31T03:33:42.827Z,0
2016-08-31T03:34:42.839Z,0
2016-08-31T03:35:43.641Z,0
2016-08-31T03:36:42.201Z,0
2016-08-31T03:37:44.338Z,0
2016-08-31T03:38:41.530Z,0
2016-08-31T03:39:42.961Z,0
2016-08-31T03:40:42.993Z,0
2016-08-31T03:41:42.309Z,0
2016-08-31T03:42:44.460Z,0
2016-08-31T03:43:41.656Z,0
2016-08-31T03:44:43.799Z,0
2016-08-31T03:45:42.424Z,0
2016-08-31T03:46:43.147Z,0
2016-08-31T03:47:42.488Z,0
2016-08-31T03:48:43.903Z,0
2016-08-31T03:49:41.811Z,0
2016-08-31T03:50:41.821Z,0
2016-08-31T03:51:42.584Z,0
2016-08-31T03:52:44.022Z,0
2016-08-31T03:53:42.615Z,0
2016-08-31T03:54:44.056Z,0
2016-08-31T03:55:42.678Z,0
2016-08-31T03:56:42.682Z,0
2016-08-31T03:57:43.419Z,0
2016-08-31T03:58:42.028Z,0
2016-08-31T03:59:44.175Z,0
2016-08-31T04:00:43.553Z,0
2016-08-31T04:01:42.821Z,0
2016-08-31T04:02:44.252Z,0
2016-08-31T04:03:42.870Z,0
2016-08-31T04:04:44.316Z,0
2016-08-31T04:05:43.618Z,0
2016-08-31T04:06:43.676Z,0
2016-08-31T04:07:44.394Z,0
2016-08-31T04:08:42.981Z,0
2016-08-31T04:09:43.749Z,0
2016-08-31T04:10:43.046Z,0
2016-08-31T04:11:43.772Z,0
2016-08-31T04:12:43.807Z,0
2016-08-31T04:13:43.839Z,0
2016-08-31T04:14:43.141Z,0
2016-08-31T04:15:43.169Z,0
2016-08-31T04:16:43.185Z,0
2016-08-31T04:17:43.229Z,0
2016-08-31T04:18:44.676Z,0
2016-08-31T04:19:43.266Z,0
2016-08-31T04:20:43.288Z,0
2016-08-31T04:21:42.628Z,0
2016-08-31T04:22:43.338Z,0
2016-08-31T04:23:44.073Z,0
2016-08-31T04:24:44.810Z,0
2016-08-31T04:25:43.415Z,0
2016-08-31T04:26:43.464Z,0
2016-08-31T04:27:44.885Z,0
2016-08-31T04:28:44.194Z,0
2016-08-31T04:29:44.931Z,0
2016-08-31T04:30:44.978Z,0
2016-08-31T04:31:44.987Z,0
2016-08-31T04:32:43.593Z,0
2016-08-31T04:33:44.329Z,0
2016-08-31T04:34:45.768Z,0
2016-08-31T04:35:44.167Z,0
2016-08-31T04:36:44.412Z,0
2016-08-31T04:37:43.717Z,0
2016-08-31T04:38:43.748Z,0
2016-08-31T04:39:43.767Z,0
2016-08-31T04:40:43.082Z,0
2016-08-31T04:41:45.241Z,0
2016-08-31T04:42:43.129Z,0
2016-08-31T04:43:43.863Z,0
2016-08-31T04:44:44.603Z,0
2016-08-31T04:45:43.940Z,0
2016-08-31T04:46:44.649Z,0
2016-08-31T04:47:45.385Z,0
2016-08-31T04:48:44.743Z,0
2016-08-31T04:49:45.439Z,0
2016-08-31T04:50:44.052Z,0
2016-08-31T04:51:44.785Z,0
2016-08-31T04:52:44.104Z,0
2016-08-31T04:53:44.830Z,0
2016-08-31T04:54:44.852Z,0
2016-08-31T04:55:44.890Z,0
2016-08-31T04:56:45.643Z,0
2016-08-31T04:57:45.650Z,0
2016-08-31T04:58:44.254Z,0
2016-08-31T04:59:44.982Z,0
2016-08-31T05:00:43.583Z,0
2016-08-31T05:01:44.316Z,0
2016-08-31T05:02:43.633Z,0
2016-08-31T05:03:45.088Z,0
2016-08-31T05:04:45.109Z,0
2016-08-31T05:05:45.850Z,0
2016-08-31T05:06:45.864Z,0
2016-08-31T05:07:43.771Z,0
2016-08-31T05:08:44.495Z,0
2016-08-31T05:09:44.515Z,0
2016-08-31T05:10:45.969Z,0
2016-08-31T05:11:44.575Z,0
2016-08-31T05:12:45.325Z,0
2016-08-31T05:13:44.617Z,0
2016-08-31T05:14:46.076Z,0
2016-08-31T05:15:44.670Z,0
2016-08-31T05:16:44.708Z,0
2016-08-31T05:17:45.455Z,0
2016-08-31T05:18:44.755Z,0
2016-08-31T05:19:44.786Z,0
2016-08-31T05:20:44.814Z,0
2016-08-31T05:21:44.122Z,0
2016-08-31T05:22:44.858Z,0
2016-08-31T05:23:44.874Z,0
2016-08-31T05:24:44.901Z,0
2016-08-31T05:25:44.919Z,0
2016-08-31T05:26:44.944Z,0
2016-08-31T05:27:44.983Z,0
2016-08-31T05:28:44.311Z,0
2016-08-31T05:29:46.445Z,0
2016-08-31T05:30:45.059Z,0
2016-08-31T05:31:45.073Z,0
2016-08-31T05:32:46.513Z,0
2016-08-31T05:33:45.126Z,0
2016-08-31T05:34:45.145Z,0
2016-08-31T05:35:47.175Z,0
2016-08-31T05:36:46.618Z,0
2016-08-31T05:37:45.225Z,0
2016-08-31T05:38:45.246Z,0
2016-08-31T05:39:46.187Z,0
2016-08-31T05:40:46.032Z,0
2016-08-31T05:41:46.032Z,0
2016-08-31T05:42:46.058Z,0
2016-08-31T05:43:47.504Z,0
2016-08-31T05:44:45.403Z,0
2016-08-31T05:45:47.556Z,0
2016-08-31T05:46:44.761Z,0
2016-08-31T05:47:45.481Z,0
2016-08-31T05:48:45.505Z,0
2016-08-31T05:49:45.525Z,0
2016-08-31T05:50:45.549Z,0
2016-08-31T05:51:47.001Z,0
2016-08-31T05:52:46.317Z,0
2016-08-31T05:53:46.336Z,0
2016-08-31T05:54:47.090Z,5
2016-08-31T05:55:46.383Z,5
2016-08-31T05:56:45.704Z,5
2016-08-31T05:57:46.448Z,5
2016-08-31T05:58:45.752Z,5
2016-08-31T05:59:46.528Z,5
2016-08-31T06:00:46.520Z,5
2016-08-31T06:01:45.832Z,5
2016-08-31T06:02:46.562Z,5
2016-08-31T06:03:45.882Z,5
2016-08-31T06:04:48.202Z,5
2016-08-31T06:05:47.597Z,5
2016-08-31T06:06:46.687Z,5
2016-08-31T06:07:46.008Z,5
2016-08-31T06:08:45.302Z,5
2016-08-31T06:09:46.047Z,5
2016-08-31T06:10:46.768Z,5
2016-08-31T06:11:46.085Z,5
2016-08-31T06:12:46.109Z,5
2016-08-31T06:13:47.598Z,5
2016-08-31T06:14:46.872Z,5
2016-08-31T06:15:46.187Z,5
2016-08-31T06:16:46.966Z,5
2016-08-31T06:17:46.950Z,5
2016-08-31T06:18:46.988Z,5
2016-08-31T06:19:47.003Z,5
2016-08-31T06:20:47.743Z,5
2016-08-31T06:21:47.053Z,10
2016-08-31T06:22:47.090Z,10
2016-08-31T06:23:47.821Z,10
2016-08-31T06:24:46.423Z,10
2016-08-31T06:25:46.447Z,10
2016-08-31T06:26:47.181Z,10
2016-08-31T06:27:46.499Z,10
2016-08-31T06:28:47.243Z,10
2016-08-31T06:29:46.546Z,10
2016-08-31T06:30:48.721Z,10
2016-08-31T06:31:47.333Z,10
2016-08-31T06:32:48.041Z,10
2016-08-31T06:33:47.363Z,10
2016-08-31T06:34:47.387Z,10
2016-08-31T06:35:47.416Z,10
2016-08-31T06:36:48.161Z,10
2016-08-31T06:37:46.755Z,10
2016-08-31T06:38:46.780Z,10
2016-08-31T06:39:48.942Z,10
2016-08-31T06:40:48.257Z,10
2016-08-31T06:41:48.990Z,5
2016-08-31T06:42:46.905Z,5
2016-08-31T06:43:47.636Z,10
2016-08-31T06:44:46.938Z,5
2016-08-31T06:45:46.975Z,5
2016-08-31T06:46:46.993Z,5
2016-08-31T06:47:48.456Z,5
2016-08-31T06:48:47.767Z,5
2016-08-31T06:49:48.502Z,5
2016-08-31T06:50:46.382Z,5
2016-08-31T06:51:48.543Z,5
2016-08-31T06:52:46.430Z,5
2016-08-31T06:53:47.888Z,5
2016-08-31T06:54:47.921Z,5
2016-08-31T06:55:47.955Z,5
2016-08-31T06:56:47.979Z,5
2016-08-31T06:57:47.284Z,5
2016-08-31T06:58:47.298Z,5
2016-08-31T06:59:48.756Z,5
2016-08-31T07:00:47.364Z,5
2016-08-31T07:01:48.801Z,5
2016-08-31T07:02:48.828Z,5
2016-08-31T07:03:48.236Z,10
2016-08-31T07:04:48.884Z,5
2016-08-31T07:05:48.199Z,5
2016-08-31T07:06:48.222Z,10
2016-08-31T07:07:46.830Z,10
2016-08-31T07:08:47.578Z,5
2016-08-31T07:09:46.883Z,5
2016-08-31T07:10:49.752Z,5
2016-08-31T07:11:47.648Z,5
2016-08-31T07:12:48.391Z,5
2016-08-31T07:13:47.000Z,5
2016-08-31T07:14:47.726Z,5
2016-08-31T07:15:47.083Z,5
2016-08-31T07:16:48.498Z,5
2016-08-31T07:17:48.525Z,5
2016-08-31T07:18:47.120Z,5
2016-08-31T07:19:48.575Z,10
2016-08-31T07:20:48.624Z,10
2016-08-31T07:21:48.621Z,10
2016-08-31T07:22:48.651Z,15
2016-08-31T07:23:48.668Z,10
2016-08-31T07:24:48.703Z,15
2016-08-31T07:25:49.449Z,10
2016-08-31T07:26:50.166Z,15
2016-08-31T07:27:48.084Z,15
2016-08-31T07:28:48.803Z,15
2016-08-31T07:29:48.821Z,15
2016-08-31T07:30:48.856Z,15
2016-08-31T07:31:48.171Z,15
2016-08-31T07:32:48.195Z,15
2016-08-31T07:33:47.518Z,15
2016-08-31T07:34:48.970Z,15
2016-08-31T07:35:48.984Z,15
2016-08-31T07:36:48.306Z,15
2016-08-31T07:37:49.040Z,20
2016-08-31T07:38:49.068Z,20
2016-08-31T07:39:49.807Z,20
2016-08-31T07:40:48.410Z,20
2016-08-31T07:41:49.212Z,20
2016-08-31T07:42:47.865Z,20
2016-08-31T07:43:49.370Z,20
2016-08-31T07:44:49.935Z,20
2016-08-31T07:45:49.963Z,20
2016-08-31T07:46:49.999Z,20
2016-08-31T07:47:50.019Z,20
2016-08-31T07:48:48.634Z,20
2016-08-31T07:49:50.098Z,20
2016-08-31T07:50:47.966Z,20
2016-08-31T07:51:49.424Z,20
2016-08-31T07:52:49.445Z,20
2016-08-31T07:53:50.442Z,20
2016-08-31T07:54:50.208Z,20
2016-08-31T07:55:48.099Z,20
2016-08-31T07:56:48.138Z,20
2016-08-31T07:57:48.873Z,20
2016-08-31T07:58:49.618Z,20
2016-08-31T07:59:50.355Z,20
2016-08-31T08:00:48.242Z,20
2016-08-31T08:01:49.012Z,20
2016-08-31T08:02:49.944Z,20
2016-08-31T08:03:48.515Z,20
2016-08-31T08:04:48.526Z,20
2016-08-31T08:05:50.201Z,20
2016-08-31T08:06:48.647Z,20
2016-08-31T08:07:48.660Z,20
2016-08-31T08:08:49.368Z,20
2016-08-31T08:09:49.228Z,20
2016-08-31T08:10:49.224Z,30
2016-08-31T08:11:49.953Z,25
2016-08-31T08:12:48.581Z,20
2016-08-31T08:13:50.011Z,20
2016-08-31T08:14:49.365Z,20
2016-08-31T08:15:49.364Z,20
2016-08-31T08:16:50.811Z,25
2016-08-31T08:17:50.833Z,20
2016-08-31T08:18:50.867Z,20
2016-08-31T08:19:49.470Z,20
2016-08-31T08:20:51.646Z,20
2016-08-31T08:21:50.244Z,20
2016-08-31T08:22:49.552Z,20
2016-08-31T08:23:49.577Z,20
2016-08-31T08:24:49.642Z,20
2016-08-31T08:25:50.350Z,20
2016-08-31T08:26:50.372Z,20
2016-08-31T08:27:49.692Z,20
2016-08-31T08:28:50.433Z,20
2016-08-31T08:29:49.748Z,20
2016-08-31T08:30:51.204Z,20
2016-08-31T08:31:49.808Z,20
2016-08-31T08:32:50.549Z,20
2016-08-31T08:33:51.290Z,20
2016-08-31T08:34:50.610Z,20
2016-08-31T08:35:49.209Z,20
2016-08-31T08:36:50.678Z,20
2016-08-31T08:37:50.696Z,20
2016-08-31T08:38:50.005Z,20
2016-08-31T08:39:50.050Z,20
2016-08-31T08:40:52.193Z,20
2016-08-31T08:41:52.225Z,20
2016-08-31T08:42:50.827Z,20
2016-08-31T08:43:50.881Z,20
2016-08-31T08:44:50.889Z,20
2016-08-31T08:45:50.207Z,20
2016-08-31T08:46:50.235Z,20
2016-08-31T08:47:50.984Z,20
2016-08-31T08:48:50.291Z,20
2016-08-31T08:49:51.055Z,20
2016-08-31T08:50:51.061Z,20
2016-08-31T08:51:50.373Z,20
2016-08-31T08:52:51.828Z,25
2016-08-31T08:53:50.438Z,25
2016-08-31T08:54:51.175Z,25
2016-08-31T08:55:50.503Z,20
2016-08-31T08:56:52.654Z,20
2016-08-31T08:57:51.268Z,20
2016-08-31T08:58:49.871Z,20
2016-08-31T08:59:52.044Z,20
2016-08-31T09:00:51.350Z,20
2016-08-31T09:01:50.675Z,20
2016-08-31T09:02:52.133Z,20
2016-08-31T09:03:51.442Z,20
2016-08-31T09:04:52.168Z,20
2016-08-31T09:05:50.802Z,20
2016-08-31T09:06:50.815Z,20
2016-08-31T09:07:52.264Z,20
2016-08-31T09:08:51.615Z,20
2016-08-31T09:09:52.320Z,20
2016-08-31T09:10:50.932Z,20
2016-08-31T09:11:52.504Z,20
2016-08-31T09:12:51.706Z,20
2016-08-31T09:13:51.021Z,20
2016-08-31T09:14:50.367Z,20
2016-08-31T09:15:51.782Z,20
2016-08-31T09:16:52.567Z,20
2016-08-31T09:17:52.570Z,20
2016-08-31T09:18:51.915Z,20
2016-08-31T09:19:51.931Z,20
2016-08-31T09:20:50.614Z,20
2016-08-31T09:21:51.969Z,20
2016-08-31T09:22:51.280Z,20
2016-08-31T09:23:52.742Z,20
2016-08-31T09:24:51.346Z,20
2016-08-31T09:25:52.804Z,20
2016-08-31T09:26:51.417Z,20
2016-08-31T09:27:51.431Z,20
2016-08-31T09:28:51.464Z,20
2016-08-31T09:29:52.937Z,20
2016-08-31T09:30:52.950Z,20
2016-08-31T09:31:52.264Z,20
2016-08-31T09:32:51.577Z,20
2016-08-31T09:33:51.733Z,20
2016-08-31T09:34:51.639Z,20
2016-08-31T09:35:53.641Z,20
2016-08-31T09:36:52.457Z,25
2016-08-31T09:37:52.464Z,25
2016-08-31T09:38:53.180Z,25
2016-08-31T09:39:52.532Z,25
2016-08-31T09:40:53.246Z,25
2016-08-31T09:41:52.564Z,25
2016-08-31T09:42:53.299Z,25
2016-08-31T09:43:52.656Z,25
2016-08-31T09:44:53.367Z,45
2016-08-31T09:45:51.264Z,85
2016-08-31T09:46:52.720Z,75
2016-08-31T09:47:52.749Z,35
2016-08-31T09:48:52.067Z,25
2016-08-31T09:49:52.094Z,25
2016-08-31T09:50:52.123Z,25
2016-08-31T09:51:52.884Z,25
2016-08-31T09:52:53.636Z,25
2016-08-31T09:53:52.235Z,25
2016-08-31T09:54:52.951Z,25
2016-08-31T09:55:53.698Z,25
2016-08-31T09:56:53.018Z,25
2016-08-31T09:57:52.338Z,25
2016-08-31T09:58:53.085Z,25
2016-08-31T09:59:52.407Z,25
2016-08-31T10:00:53.851Z,25
2016-08-31T10:01:52.457Z,25
2016-08-31T10:02:53.923Z,25
2016-08-31T10:03:52.560Z,25
2016-08-31T10:04:53.269Z,25
2016-08-31T10:05:53.315Z,30
2016-08-31T10:06:51.897Z,35
2016-08-31T10:07:52.647Z,25
2016-08-31T10:08:53.455Z,25
2016-08-31T10:09:52.746Z,25
2016-08-31T10:10:53.455Z,25
2016-08-31T10:11:53.471Z,25
2016-08-31T10:12:52.796Z,25
2016-08-31T10:13:54.248Z,20
2016-08-31T10:14:53.565Z,20
2016-08-31T10:15:54.319Z,20
2016-08-31T10:16:52.919Z,20
2016-08-31T10:17:52.948Z,25
2016-08-31T10:18:53.693Z,35
2016-08-31T10:19:53.723Z,45
2016-08-31T10:20:52.391Z,40
2016-08-31T10:21:54.528Z,25
2016-08-31T10:22:53.105Z,20
2016-08-31T10:23:53.850Z,20
2016-08-31T10:24:53.994Z,20
2016-08-31T10:25:53.909Z,20
2016-08-31T10:26:53.945Z,20
2016-08-31T10:27:54.695Z,20
2016-08-31T10:28:54.004Z,20
2016-08-31T10:29:54.758Z,40
2016-08-31T10:30:54.072Z,40
2016-08-31T10:31:54.819Z,30
2016-08-31T10:32:55.578Z,25
2016-08-31T10:33:52.740Z,25
2016-08-31T10:34:53.479Z,35
2016-08-31T10:35:54.229Z,35
2016-08-31T10:36:54.257Z,25
2016-08-31T10:37:54.353Z,20
2016-08-31T10:38:54.321Z,20
2016-08-31T10:39:55.074Z,20
2016-08-31T10:40:55.092Z,20
2016-08-31T10:41:53.694Z,20
2016-08-31T10:42:53.039Z,20
2016-08-31T10:43:53.777Z,30
2016-08-31T10:44:53.793Z,40
2016-08-31T10:45:53.822Z,40
2016-08-31T10:46:55.293Z,50
2016-08-31T10:47:54.616Z,35
2016-08-31T10:48:53.917Z,30
2016-08-31T10:49:55.500Z,25
2016-08-31T10:50:53.776Z,20
2016-08-31T10:51:53.303Z,20
2016-08-31T10:52:55.465Z,20
2016-08-31T10:53:54.279Z,20
2016-08-31T10:54:55.537Z,20
2016-08-31T10:55:55.560Z,20
2016-08-31T10:56:54.174Z,20
2016-08-31T10:57:55.629Z,20
2016-08-31T10:58:54.955Z,20
2016-08-31T10:59:54.264Z,20
2016-08-31T11:00:55.722Z,20
2016-08-31T11:01:54.378Z,20
2016-08-31T11:02:56.492Z,20
2016-08-31T11:03:55.130Z,20
2016-08-31T11:04:55.130Z,20
2016-08-31T11:05:55.924Z,20
2016-08-31T11:06:54.493Z,20
2016-08-31T11:07:53.825Z,20
2016-08-31T11:08:55.989Z,20
2016-08-31T11:09:55.293Z,20
2016-08-31T11:10:56.034Z,20
2016-08-31T11:11:54.649Z,20
2016-08-31T11:12:56.113Z,20
2016-08-31T11:13:54.708Z,20
2016-08-31T11:14:55.474Z,20
2016-08-31T11:15:54.774Z,20
2016-08-31T11:16:55.528Z,20
2016-08-31T11:17:56.258Z,20
2016-08-31T11:18:55.578Z,20
2016-08-31T11:19:55.615Z,25
2016-08-31T11:20:54.228Z,20
2016-08-31T11:21:54.967Z,20
2016-08-31T11:22:55.710Z,20
2016-08-31T11:23:55.762Z,20
2016-08-31T11:24:55.790Z,20
2016-08-31T11:25:55.819Z,20
2016-08-31T11:26:54.423Z,20
2016-08-31T11:27:56.591Z,20
2016-08-31T11:28:55.183Z,20
2016-08-31T11:29:56.652Z,20
2016-08-31T11:30:55.308Z,20
2016-08-31T11:31:55.303Z,20
2016-08-31T11:32:56.049Z,20
2016-08-31T11:33:55.615Z,20
2016-08-31T11:34:55.595Z,20
2016-08-31T11:35:56.854Z,20
2016-08-31T11:36:55.488Z,20
2016-08-31T11:37:57.673Z,20
2016-08-31T11:38:56.231Z,20
2016-08-31T11:39:54.849Z,20
2016-08-31T11:40:56.308Z,20
2016-08-31T11:41:56.314Z,20
2016-08-31T11:42:58.319Z,20
2016-08-31T11:43:56.562Z,20
2016-08-31T11:44:56.421Z,20
2016-08-31T11:45:55.736Z,20
2016-08-31T11:46:57.223Z,20
2016-08-31T11:47:57.242Z,20
2016-08-31T11:48:55.858Z,20
2016-08-31T11:49:57.359Z,20
2016-08-31T11:50:56.746Z,20
2016-08-31T11:51:57.606Z,20
2016-08-31T11:52:56.013Z,20
2016-08-31T11:53:56.001Z,20
2016-08-31T11:54:57.453Z,20
2016-08-31T11:55:58.410Z,20
2016-08-31T11:56:57.527Z,20
2016-08-31T11:57:57.624Z,20
2016-08-31T11:58:56.894Z,20
2016-08-31T11:59:57.624Z,20
2016-08-31T12:00:58.368Z,20
2016-08-31T12:01:56.263Z,20
2016-08-31T12:02:56.366Z,20
2016-08-31T12:03:57.741Z,20
2016-08-31T12:04:56.361Z,20
2016-08-31T12:05:57.109Z,20
2016-08-31T12:06:57.178Z,20
2016-08-31T12:07:58.052Z,20
2016-08-31T12:08:57.265Z,20
2016-08-31T12:09:58.692Z,20
2016-08-31T12:10:55.869Z,20
2016-08-31T12:11:58.055Z,20
2016-08-31T12:12:55.900Z,20
2016-08-31T12:13:57.361Z,20
2016-08-31T12:14:58.096Z,20
2016-08-31T12:15:58.242Z,20
2016-08-31T12:16:57.467Z,20
2016-08-31T12:17:57.881Z,20
2016-08-31T12:18:58.244Z,20
2016-08-31T12:19:58.993Z,20
2016-08-31T12:20:58.295Z,20
2016-08-31T12:21:57.789Z,20
2016-08-31T12:22:58.428Z,20
2016-08-31T12:23:56.285Z,20
2016-08-31T12:24:57.703Z,20
2016-08-31T12:25:57.741Z,20
2016-08-31T12:26:58.544Z,20
2016-08-31T12:27:56.386Z,20
2016-08-31T12:28:59.266Z,20
2016-08-31T12:29:58.603Z,20
2016-08-31T12:30:57.913Z,20
2016-08-31T12:31:58.675Z,20
2016-08-31T12:32:57.274Z,20
2016-08-31T12:33:57.299Z,20
2016-08-31T12:34:58.945Z,20
2016-08-31T12:35:57.587Z,20
2016-08-31T12:36:57.599Z,20
2016-08-31T12:37:57.456Z,20
2016-08-31T12:38:59.347Z,20
2016-08-31T12:39:56.782Z,20
2016-08-31T12:40:59.019Z,20
2016-08-31T12:41:57.548Z,20
2016-08-31T12:42:57.698Z,20
2016-08-31T12:43:58.337Z,20
2016-08-31T12:44:59.068Z,20
2016-08-31T12:45:58.517Z,20
2016-08-31T12:46:58.418Z,20
2016-08-31T12:47:57.052Z,20
2016-08-31T12:48:58.497Z,20
2016-08-31T12:49:59.228Z,20
2016-08-31T12:50:58.555Z,20
2016-08-31T12:52:00.010Z,15
2016-08-31T12:52:57.909Z,15
2016-08-31T12:53:59.354Z,15
2016-08-31T12:55:46.399Z,15
2016-08-31T12:56:04.827Z,15
2016-08-31T12:56:59.922Z,15
2016-08-31T12:57:58.780Z,15
2016-08-31T12:58:58.108Z,15
2016-08-31T12:59:58.148Z,15
2016-08-31T13:00:58.165Z,15
2016-08-31T13:01:58.204Z,15
2016-08-31T13:02:59.667Z,15
2016-08-31T13:03:58.266Z,15
2016-08-31T13:04:59.716Z,15
2016-08-31T13:05:59.793Z,15
2016-08-31T13:06:58.359Z,15
2016-08-31T13:07:59.876Z,15
2016-08-31T13:08:59.903Z,15
2016-08-31T13:09:59.175Z,15
2016-08-31T13:10:57.795Z,15
2016-08-31T13:11:59.235Z,15
2016-08-31T13:13:01.257Z,15
2016-08-31T13:14:02.439Z,15
2016-08-31T13:15:02.412Z,15
2016-08-31T13:15:59.366Z,15
2016-08-31T13:16:58.684Z,15
2016-08-31T13:18:00.149Z,15
2016-08-31T13:19:00.177Z,15
2016-08-31T13:19:58.791Z,15
2016-08-31T13:20:58.842Z,15
2016-08-31T13:22:00.281Z,15
2016-08-31T13:22:58.894Z,15
2016-08-31T13:24:00.337Z,15
2016-08-31T13:25:00.370Z,15
2016-08-31T13:25:58.980Z,15
2016-08-31T13:26:59.721Z,15
2016-08-31T13:27:59.049Z,15
2016-08-31T13:28:58.371Z,15
2016-08-31T13:29:59.818Z,15
2016-08-31T13:30:59.873Z,15
2016-08-31T13:31:59.887Z,15
2016-08-31T13:32:59.207Z,15
2016-08-31T13:34:00.664Z,15
2016-08-31T13:35:00.714Z,15
2016-08-31T13:35:59.307Z,15
2016-08-31T13:36:59.342Z,15
2016-08-31T13:37:59.388Z,15
2016-08-31T13:38:59.533Z,15
2016-08-31T13:40:01.015Z,10
2016-08-31T13:41:00.185Z,10
2016-08-31T13:42:00.993Z,10
2016-08-31T13:42:59.546Z,10
2016-08-31T13:44:00.323Z,10
2016-08-31T13:45:01.034Z,10
2016-08-31T13:46:01.058Z,10
2016-08-31T13:47:01.093Z,10
2016-08-31T13:47:59.702Z,10
2016-08-31T13:49:01.183Z,10
2016-08-31T13:50:00.810Z,10
2016-08-31T13:50:59.810Z,0
2016-08-31T13:52:01.260Z,0
2016-08-31T13:52:59.167Z,0
2016-08-31T13:54:01.333Z,10
2016-08-31T13:55:01.365Z,10
2016-08-31T13:56:01.399Z,10
2016-08-31T13:57:01.422Z,10
2016-08-31T13:58:01.460Z,10
2016-08-31T13:58:59.359Z,10
2016-08-31T14:00:01.519Z,10
2016-08-31T14:01:00.864Z,10
2016-08-31T14:02:00.874Z,10
2016-08-31T14:03:01.130Z,10
2016-08-31T14:04:00.253Z,10
2016-08-31T14:05:00.264Z,10
2016-08-31T14:06:01.866Z,10
2016-08-31T14:07:01.058Z,10
2016-08-31T14:08:01.781Z,10
2016-08-31T14:09:00.394Z,10
2016-08-31T14:09:59.714Z,10
2016-08-31T14:11:00.465Z,10
2016-08-31T14:12:00.503Z,10
2016-08-31T14:13:01.240Z,10
2016-08-31T14:14:00.568Z,10
2016-08-31T14:15:02.008Z,10
2016-08-31T14:16:01.352Z,10
2016-08-31T14:17:01.084Z,10
2016-08-31T14:18:00.699Z,10
2016-08-31T14:19:01.430Z,10
2016-08-31T14:20:01.481Z,10
2016-08-31T14:21:00.799Z,10
2016-08-31T14:22:01.691Z,10
2016-08-31T14:23:01.647Z,10
2016-08-31T14:24:00.916Z,10
2016-08-31T14:25:02.587Z,10
2016-08-31T14:26:02.525Z,10
2016-08-31T14:27:02.642Z,10
2016-08-31T14:28:01.174Z,10
2016-08-31T14:29:01.183Z,10
2016-08-31T14:30:03.748Z,10
2016-08-31T14:31:01.871Z,10